createdAt,value
2017-04-17T05:26:41.923Z,8
2017-04-17T05:27:26.548Z,4
2017-04-17T05:28:40.235Z,4
2017-04-17T05:31:19.644Z,280
2017-04-17T05:32:33.347Z,308
2017-04-17T05:33:47.817Z,324
2017-04-17T05:35:01.280Z,300
2017-04-17T05:36:14.859Z,280
2017-04-17T05:37:28.250Z,248
2017-04-17T05:38:42.349Z,224
2017-04-17T05:39:55.869Z,244
2017-04-17T05:41:09.490Z,256
2017-04-17T05:42:22.892Z,224
2017-04-17T05:43:36.716Z,328
2017-04-17T05:44:50.435Z,376
2017-04-17T05:46:04.220Z,400
2017-04-17T05:47:17.714Z,372
2017-04-17T05:48:31.257Z,352
2017-04-17T05:49:44.654Z,360
2017-04-17T05:50:58.142Z,364
2017-04-17T05:52:11.611Z,380
2017-04-17T05:53:25.904Z,408
2017-04-17T05:54:39.908Z,452
2017-04-17T05:55:53.380Z,460
2017-04-17T05:57:06.818Z,404
2017-04-17T05:58:20.309Z,352
2017-04-17T05:59:33.689Z,384
2017-04-17T06:00:47.248Z,380
2017-04-17T06:02:00.759Z,476
2017-04-17T06:03:14.479Z,616
2017-04-17T06:04:27.867Z,636
2017-04-17T06:05:41.964Z,652
2017-04-17T06:06:55.450Z,604
2017-04-17T06:08:09.062Z,616
2017-04-17T06:09:22.448Z,624
2017-04-17T06:10:36.022Z,604
2017-04-17T06:11:49.936Z,544
2017-04-17T06:13:03.946Z,560
2017-04-17T06:14:17.345Z,708
2017-04-17T06:15:30.878Z,796
2017-04-17T06:16:44.314Z,792
2017-04-17T06:18:10.358Z,692
2017-04-17T06:19:23.753Z,688
2017-04-17T06:20:37.298Z,808
2017-04-17T06:21:50.688Z,752
2017-04-17T06:23:04.218Z,792
2017-04-17T06:24:17.944Z,748
2017-04-17T06:25:31.718Z,696
2017-04-17T06:26:45.148Z,580
2017-04-17T06:27:58.689Z,504
2017-04-17T06:29:12.137Z,528
2017-04-17T06:30:25.924Z,496
2017-04-17T06:31:39.326Z,640
2017-04-17T06:32:52.812Z,740
2017-04-17T06:34:06.247Z,684
2017-04-17T06:35:19.815Z,756
2017-04-17T06:36:33.259Z,752
2017-04-17T06:37:47.044Z,672
2017-04-17T06:39:00.668Z,592
2017-04-17T06:40:14.274Z,568
2017-04-17T06:41:27.685Z,688
2017-04-17T06:42:41.253Z,560
2017-04-17T06:43:54.777Z,448
2017-04-17T06:45:08.646Z,472
2017-04-17T06:46:22.420Z,532
2017-04-17T06:47:38.131Z,940
2017-04-17T06:48:51.860Z,1220
2017-04-17T06:50:05.637Z,928
2017-04-17T06:51:20.817Z,920
2017-04-17T06:52:34.812Z,1004
2017-04-17T06:53:48.662Z,872
2017-04-17T06:55:02.468Z,600
2017-04-17T06:56:15.932Z,456
2017-04-17T06:57:29.793Z,516
2017-04-17T06:58:43.273Z,644
2017-04-17T06:59:56.783Z,672
2017-04-17T07:01:10.228Z,840
2017-04-17T07:02:23.738Z,1092
2017-04-17T07:03:37.113Z,1076
2017-04-17T07:04:50.610Z,868
2017-04-17T07:06:04.643Z,872
2017-04-17T07:07:18.327Z,876
2017-04-17T07:08:31.761Z,1116
2017-04-17T07:09:45.577Z,1144
2017-04-17T07:10:59.066Z,880
2017-04-17T07:12:12.743Z,932
2017-04-17T07:13:26.140Z,1044
2017-04-17T07:14:39.967Z,952
2017-04-17T07:15:53.372Z,820
2017-04-17T07:17:07.287Z,696
2017-04-17T07:18:20.694Z,848
2017-04-17T07:19:34.232Z,868
2017-04-17T07:20:47.921Z,740
2017-04-17T07:22:01.526Z,696
2017-04-17T07:23:14.915Z,752
2017-04-17T07:24:28.503Z,756
2017-04-17T07:25:42.536Z,652
2017-04-17T07:26:56.122Z,592
2017-04-17T07:28:09.570Z,528
2017-04-17T07:29:23.056Z,428
2017-04-17T07:30:36.500Z,360
2017-04-17T07:31:50.555Z,476
2017-04-17T07:33:04.030Z,560
2017-04-17T07:34:17.858Z,584
2017-04-17T07:35:31.562Z,588
2017-04-17T07:36:45.283Z,520
2017-04-17T07:37:58.857Z,368
2017-04-17T07:39:12.412Z,244
2017-04-17T07:40:25.804Z,240
2017-04-17T07:41:39.330Z,260
2017-04-17T07:42:52.855Z,308
2017-04-17T07:44:06.372Z,388
2017-04-17T07:45:20.098Z,456
2017-04-17T07:46:33.566Z,508
2017-04-17T07:47:47.342Z,696
2017-04-17T07:49:01.097Z,604
2017-04-17T07:50:27.832Z,488
2017-04-17T07:51:41.338Z,476
2017-04-17T07:52:54.868Z,424
2017-04-17T07:54:08.403Z,468
2017-04-17T07:55:21.806Z,516
2017-04-17T07:56:35.775Z,400
2017-04-17T07:57:50.158Z,380
2017-04-17T07:59:04.018Z,408
2017-04-17T08:00:17.388Z,552
2017-04-17T08:01:31.127Z,516
2017-04-17T08:02:44.757Z,352
2017-04-17T08:04:01.058Z,512
2017-04-17T08:05:14.479Z,632
2017-04-17T08:06:28.789Z,604
2017-04-17T08:07:42.610Z,628
2017-04-17T08:08:56.585Z,872
2017-04-17T08:10:10.368Z,1380
2017-04-17T08:11:23.919Z,1548
2017-04-17T08:12:37.336Z,1924
2017-04-17T08:13:50.825Z,2196
2017-04-17T08:15:04.864Z,2340
2017-04-17T08:16:18.654Z,2072
2017-04-17T08:17:32.726Z,1780
2017-04-17T08:18:46.483Z,1836
2017-04-17T08:19:59.988Z,1880
2017-04-17T08:21:14.111Z,1744
2017-04-17T08:22:27.545Z,1748
2017-04-17T08:23:41.083Z,1812
2017-04-17T08:24:54.537Z,1800
2017-04-17T08:26:08.129Z,1872
2017-04-17T08:27:21.845Z,2088
2017-04-17T08:28:35.417Z,2048
2017-04-17T08:29:49.584Z,1692
2017-04-17T08:31:03.222Z,1404
2017-04-17T08:32:16.609Z,1204
2017-04-17T08:33:30.449Z,1148
2017-04-17T08:34:43.876Z,1080
2017-04-17T08:35:57.774Z,1136
2017-04-17T08:37:11.298Z,1212
2017-04-17T08:38:24.911Z,1240
2017-04-17T08:39:38.780Z,1104
2017-04-17T08:40:52.481Z,1004
2017-04-17T08:42:05.922Z,924
2017-04-17T08:43:20.407Z,980
2017-04-17T08:44:33.801Z,1216
2017-04-17T08:45:47.691Z,1420
2017-04-17T08:47:01.201Z,1408
2017-04-17T08:48:14.711Z,1452
2017-04-17T08:49:28.157Z,1304
2017-04-17T08:50:41.748Z,1340
2017-04-17T08:51:55.207Z,1328
2017-04-17T08:53:08.865Z,1272
2017-04-17T08:54:22.271Z,1248
2017-04-17T08:55:35.910Z,1240
2017-04-17T08:56:49.621Z,1264
2017-04-17T08:58:03.591Z,1204
2017-04-17T08:59:17.843Z,1132
2017-04-17T09:00:31.391Z,1192
2017-04-17T09:01:45.263Z,1356
2017-04-17T09:03:00.441Z,1532
2017-04-17T09:04:13.898Z,1568
2017-04-17T09:05:28.375Z,1620
2017-04-17T09:06:41.867Z,1744
2017-04-17T09:07:55.774Z,1820
2017-04-17T09:09:09.625Z,1728
2017-04-17T09:10:24.399Z,2052
2017-04-17T09:11:38.581Z,2224
2017-04-17T09:12:52.415Z,2556
2017-04-17T09:14:06.302Z,2928
2017-04-17T09:15:20.100Z,2844
2017-04-17T09:16:33.584Z,2356
2017-04-17T09:17:47.384Z,2288
2017-04-17T09:19:00.989Z,2548
2017-04-17T09:20:17.019Z,2612
2017-04-17T09:21:31.580Z,2636
2017-04-17T09:22:45.868Z,2632
2017-04-17T09:23:59.665Z,2868
2017-04-17T09:25:13.247Z,3108
2017-04-17T09:26:26.973Z,3480
2017-04-17T09:27:40.922Z,3848
2017-04-17T09:28:54.493Z,3932
2017-04-17T09:30:08.333Z,4128
2017-04-17T09:31:21.764Z,4280
2017-04-17T09:32:35.463Z,4508
2017-04-17T09:33:49.552Z,5080
2017-04-17T09:35:03.212Z,5152
2017-04-17T09:36:17.195Z,5060
2017-04-17T09:37:30.939Z,4780
2017-04-17T09:38:45.288Z,4280
2017-04-17T09:39:58.990Z,4272
2017-04-17T09:41:12.945Z,4712
2017-04-17T09:42:27.813Z,5588
2017-04-17T09:43:41.737Z,5632
2017-04-17T09:44:55.475Z,5476
2017-04-17T09:46:08.921Z,4872
2017-04-17T09:47:22.563Z,5156
2017-04-17T09:48:37.505Z,5672
2017-04-17T09:49:51.082Z,7688
2017-04-17T09:51:04.869Z,6876
2017-04-17T09:52:18.602Z,7344
2017-04-17T09:53:32.436Z,7220
2017-04-17T09:54:46.834Z,6808
2017-04-17T09:56:00.447Z,6388
2017-04-17T09:57:14.018Z,5252
2017-04-17T09:58:28.100Z,5604
2017-04-17T09:59:41.823Z,4740
2017-04-17T10:00:56.887Z,5264
2017-04-17T10:02:10.784Z,5832
2017-04-17T10:03:24.311Z,4984
2017-04-17T10:04:38.112Z,4128
2017-04-17T10:05:52.147Z,4240
2017-04-17T10:07:06.141Z,4276
2017-04-17T10:08:20.480Z,3952
2017-04-17T10:09:34.263Z,3872
2017-04-17T10:10:47.799Z,4224
2017-04-17T10:12:01.457Z,3628
2017-04-17T10:13:15.178Z,4068
2017-04-17T10:14:29.103Z,4780
2017-04-17T10:15:42.639Z,4700
2017-04-17T10:17:18.617Z,5212
2017-04-17T10:18:32.876Z,4832
2017-04-17T10:19:46.576Z,4496
2017-04-17T10:21:00.827Z,4992
2017-04-17T10:22:14.414Z,5448
2017-04-17T10:23:28.288Z,5052
2017-04-17T10:24:42.401Z,5312
2017-04-17T10:25:56.620Z,4636
2017-04-17T10:27:10.096Z,4252
2017-04-17T10:28:24.634Z,4628
2017-04-17T10:29:38.881Z,4984
2017-04-17T10:30:52.649Z,4228
2017-04-17T10:32:06.320Z,4608
2017-04-17T10:33:20.278Z,5620
2017-04-17T10:34:33.774Z,6604
2017-04-17T10:36:00.089Z,7092
2017-04-17T10:37:16.387Z,6768
2017-04-17T10:38:30.222Z,6968
2017-04-17T10:39:43.836Z,7260
2017-04-17T10:40:57.689Z,7016
2017-04-17T10:42:11.344Z,6856
2017-04-17T10:43:25.243Z,6684
2017-04-17T10:44:39.284Z,5956
2017-04-17T10:45:53.025Z,5152
2017-04-17T10:47:06.653Z,4804
2017-04-17T10:48:20.604Z,4228
2017-04-17T10:49:34.015Z,3708
2017-04-17T10:50:47.571Z,3340
2017-04-17T10:52:01.110Z,2712
2017-04-17T10:53:37.393Z,2236
2017-04-17T10:54:51.910Z,2056
2017-04-17T10:56:05.385Z,1676
2017-04-17T10:57:19.150Z,1416
2017-04-17T10:58:32.674Z,1308
2017-04-17T10:59:46.499Z,1236
2017-04-17T11:01:00.094Z,1420
2017-04-17T11:02:13.807Z,2040
2017-04-17T11:03:27.697Z,2828
2017-04-17T11:04:54.401Z,2944
2017-04-17T11:06:08.114Z,5184
2017-04-17T11:07:22.002Z,7792
2017-04-17T11:08:35.656Z,7340
2017-04-17T11:09:49.206Z,6372
2017-04-17T11:11:03.565Z,6904
2017-04-17T11:12:17.705Z,7764
2017-04-17T11:13:31.409Z,7052
2017-04-17T11:14:45.428Z,5900
2017-04-17T11:15:59.170Z,4708
2017-04-17T11:17:13.211Z,4600
2017-04-17T11:18:27.301Z,3996
2017-04-17T11:19:41.303Z,4728
2017-04-17T11:20:54.764Z,6828
2017-04-17T11:22:08.508Z,5236
2017-04-17T11:23:22.456Z,5396
2017-04-17T11:24:36.336Z,6896
2017-04-17T11:25:54.924Z,7004
2017-04-17T11:27:09.247Z,7016
2017-04-17T11:28:22.786Z,7056
2017-04-17T11:29:36.854Z,5092
2017-04-17T11:30:51.208Z,4408
2017-04-17T11:32:05.159Z,4228
2017-04-17T11:33:18.666Z,4696
2017-04-17T11:34:32.608Z,4664
2017-04-17T11:35:46.511Z,4952
2017-04-17T11:36:59.998Z,5840
2017-04-17T11:39:42.950Z,6224
2017-04-17T11:40:57.005Z,6444
2017-04-17T11:42:10.895Z,7004
2017-04-17T11:43:26.123Z,5876
2017-04-17T11:44:40.501Z,6804
2017-04-17T11:45:54.634Z,6584
2017-04-17T11:47:09.078Z,6340
2017-04-17T11:48:22.869Z,6220
2017-04-17T11:49:55.151Z,6552
2017-04-17T11:51:08.688Z,5800
2017-04-17T11:52:23.121Z,4032
2017-04-17T11:53:37.120Z,5016
2017-04-17T11:54:54.742Z,3672
2017-04-17T11:56:08.642Z,3740
2017-04-17T11:57:22.418Z,5760
2017-04-17T11:58:36.791Z,5180
2017-04-17T11:59:50.486Z,6128
2017-04-17T12:01:04.045Z,6400
2017-04-17T12:02:17.542Z,5516
2017-04-17T12:03:31.100Z,6188
2017-04-17T12:04:45.159Z,4812
2017-04-17T12:05:59.048Z,4728
2017-04-17T12:07:12.607Z,4200
2017-04-17T12:08:26.878Z,3844
2017-04-17T12:09:40.905Z,3728
2017-04-17T12:10:54.471Z,3148
2017-04-17T12:12:08.034Z,3304
2017-04-17T12:13:21.855Z,3608
2017-04-17T12:14:36.034Z,3784
2017-04-17T12:15:50.629Z,4524
2017-04-17T12:17:04.093Z,4684
2017-04-17T12:18:17.749Z,4832
2017-04-17T12:19:31.347Z,3912
2017-04-17T12:20:45.234Z,3728
2017-04-17T12:21:59.102Z,4520
2017-04-17T12:23:12.761Z,4988
2017-04-17T12:24:26.576Z,5116
2017-04-17T12:25:40.199Z,4892
2017-04-17T12:26:54.084Z,4720
2017-04-17T12:28:07.877Z,4956
2017-04-17T12:29:21.357Z,6696
2017-04-17T12:30:35.557Z,6144
2017-04-17T12:31:49.215Z,6576
2017-04-17T12:33:02.862Z,6748
2017-04-17T12:34:16.627Z,7144
2017-04-17T12:35:30.720Z,6596
2017-04-17T12:36:44.575Z,6772
2017-04-17T12:37:58.587Z,6936
2017-04-17T12:39:12.661Z,7116
2017-04-17T12:40:26.684Z,6756
2017-04-17T12:41:40.474Z,5928
2017-04-17T12:42:54.196Z,4992
2017-04-17T12:44:07.673Z,4224
2017-04-17T12:45:30.772Z,3148
2017-04-17T12:46:44.525Z,2872
2017-04-17T12:47:58.430Z,3140
2017-04-17T12:49:12.077Z,3052
2017-04-17T12:50:26.179Z,3168
2017-04-17T12:51:40.322Z,3396
2017-04-17T12:52:54.262Z,3276
2017-04-17T12:54:07.796Z,2916
2017-04-17T12:55:22.165Z,3020
2017-04-17T12:56:36.236Z,3908
2017-04-17T12:57:50.203Z,3900
2017-04-17T12:59:03.973Z,4176
2017-04-17T13:00:18.609Z,5088
2017-04-17T13:01:32.495Z,7076
2017-04-17T13:03:48.530Z,5144
2017-04-17T13:05:03.028Z,6212
2017-04-17T13:06:17.380Z,6144
2017-04-17T13:07:31.611Z,6620
2017-04-17T13:08:45.897Z,5800
2017-04-17T13:10:00.075Z,6500
2017-04-17T13:11:14.083Z,5244
2017-04-17T13:12:29.958Z,4220
2017-04-17T13:13:43.920Z,3984
2017-04-17T13:14:57.875Z,3660
2017-04-17T13:16:12.967Z,3288
2017-04-17T13:17:27.323Z,3764
2017-04-17T13:18:41.135Z,5220
2017-04-17T13:20:14.985Z,5524
2017-04-17T13:21:29.073Z,5592
2017-04-17T13:22:43.422Z,4548
2017-04-17T13:23:57.470Z,3672
2017-04-17T13:25:11.370Z,5004
2017-04-17T13:26:25.432Z,6200
2017-04-17T13:27:38.987Z,6708
2017-04-17T13:28:53.104Z,6408
2017-04-17T13:30:06.787Z,5700
2017-04-17T13:31:42.544Z,5244
2017-04-17T13:32:56.757Z,4444
2017-04-17T13:34:10.224Z,4332
2017-04-17T13:35:33.233Z,4752
2017-04-17T13:37:13.024Z,5120
2017-04-17T13:38:26.795Z,5340
2017-04-17T13:39:41.533Z,4528
2017-04-17T13:40:55.554Z,3968
2017-04-17T13:42:09.569Z,3260
2017-04-17T13:43:23.323Z,3296
2017-04-17T13:44:37.187Z,3236
2017-04-17T13:45:51.197Z,3392
2017-04-17T13:47:05.403Z,3556
2017-04-17T13:48:19.596Z,3824
2017-04-17T13:49:33.334Z,4344
2017-04-17T13:50:47.617Z,4172
2017-04-17T13:52:01.745Z,3260
2017-04-17T13:53:16.607Z,2704
2017-04-17T13:54:30.464Z,2628
2017-04-17T13:55:44.639Z,3500
2017-04-17T13:56:58.324Z,3308
2017-04-17T13:58:11.929Z,3812
2017-04-17T13:59:26.317Z,3596
2017-04-17T14:00:40.028Z,3192
2017-04-17T14:01:54.238Z,3512
2017-04-17T14:03:08.069Z,3508
2017-04-17T14:04:21.604Z,3492
2017-04-17T14:05:35.873Z,3468
2017-04-17T14:06:49.616Z,3636
2017-04-17T14:08:04.142Z,3628
2017-04-17T14:09:17.618Z,3020
2017-04-17T14:10:31.476Z,2568
2017-04-17T14:11:45.731Z,2572
2017-04-17T14:12:59.956Z,2336
2017-04-17T14:14:14.090Z,2320
2017-04-17T14:15:28.222Z,2248
2017-04-17T14:16:57.100Z,2552
2017-04-17T14:18:11.057Z,2264
2017-04-17T14:19:25.086Z,2484
2017-04-17T14:20:38.758Z,2456
2017-04-17T14:21:52.854Z,2540
2017-04-17T14:23:07.147Z,2528
2017-04-17T14:24:20.650Z,2536
2017-04-17T14:25:34.564Z,2540
2017-04-17T14:26:48.037Z,2692
2017-04-17T14:28:01.988Z,2868
2017-04-17T14:29:16.101Z,2400
2017-04-17T14:30:32.168Z,2200
2017-04-17T14:31:46.907Z,2164
2017-04-17T14:33:01.285Z,2184
2017-04-17T14:34:15.120Z,2204
2017-04-17T14:35:29.602Z,2200
2017-04-17T14:36:43.102Z,2208
2017-04-17T14:38:12.604Z,2244
2017-04-17T14:39:27.305Z,2292
2017-04-17T14:40:41.423Z,2364
2017-04-17T14:41:55.604Z,2516
2017-04-17T14:43:09.258Z,2380
2017-04-17T14:44:22.834Z,2440
2017-04-17T14:45:36.802Z,2540
2017-04-17T14:46:50.811Z,2464
2017-04-17T14:48:04.294Z,2880
2017-04-17T14:49:18.279Z,2380
2017-04-17T14:50:32.187Z,2860
2017-04-17T14:51:45.839Z,3768
2017-04-17T14:52:59.352Z,3496
2017-04-17T14:54:13.064Z,3372
2017-04-17T14:55:26.855Z,3312
